sensor_id;sensor_type;location;lat;lon;timestamp;P1;durP1;ratioP1;P2;durP2;ratioP2
9773;SDS011;4926;42.670;23.316;2023-03-24T00:00:45;26.73;;;13.70;;
9773;SDS011;4926;42.670;23.316;2023-03-24T00:03:12;23.60;;;14.27;;
9773;SDS011;4926;42.670;23.316;2023-03-24T00:05:42;20.70;;;15.48;;
9773;SDS011;4926;42.670;23.316;2023-03-24T00:08:09;22.88;;;15.45;;
9773;SDS011;4926;42.670;23.316;2023-03-24T00:10:36;25.17;;;15.70;;
9773;SDS011;4926;42.670;23.316;2023-03-24T00:13:04;19.60;;;15.10;;
9773;SDS011;4926;42.670;23.316;2023-03-24T00:15:33;23.00;;;15.35;;
9773;SDS011;4926;42.670;23.316;2023-03-24T00:18:03;24.38;;;15.75;;
9773;SDS011;4926;42.670;23.316;2023-03-24T00:20:31;22.35;;;16.10;;
9773;SDS011;4926;42.670;23.316;2023-03-24T00:22:59;22.77;;;15.23;;
9773;SDS011;4926;42.670;23.316;2023-03-24T00:25:26;22.58;;;16.13;;
9773;SDS011;4926;42.670;23.316;2023-03-24T00:27:57;21.90;;;14.90;;
9773;SDS011;4926;42.670;23.316;2023-03-24T00:30:25;25.15;;;15.35;;
9773;SDS011;4926;42.670;23.316;2023-03-24T00:32:52;21.17;;;14.88;;
9773;SDS011;4926;42.670;23.316;2023-03-24T00:35:19;18.33;;;14.85;;
9773;SDS011;4926;42.670;23.316;2023-03-24T00:37:48;21.95;;;14.25;;
9773;SDS011;4926;42.670;23.316;2023-03-24T00:40:19;25.95;;;15.50;;
9773;SDS011;4926;42.670;23.316;2023-03-24T00:42:47;22.55;;;14.75;;
9773;SDS011;4926;42.670;23.316;2023-03-24T00:45:16;21.90;;;16.33;;
9773;SDS011;4926;42.670;23.316;2023-03-24T00:47:47;22.15;;;15.18;;
9773;SDS011;4926;42.670;23.316;2023-03-24T00:50:18;21.92;;;15.30;;
9773;SDS011;4926;42.670;23.316;2023-03-24T00:52:51;21.55;;;14.93;;
9773;SDS011;4926;42.670;23.316;2023-03-24T00:55:20;23.55;;;14.40;;
9773;SDS011;4926;42.670;23.316;2023-03-24T00:57:54;22.23;;;14.57;;
9773;SDS011;4926;42.670;23.316;2023-03-24T01:00:23;21.52;;;14.70;;
9773;SDS011;4926;42.670;23.316;2023-03-24T01:02:51;22.42;;;15.98;;
9773;SDS011;4926;42.670;23.316;2023-03-24T01:05:19;20.40;;;15.10;;
9773;SDS011;4926;42.670;23.316;2023-03-24T01:07:46;20.13;;;15.70;;
9773;SDS011;4926;42.670;23.316;2023-03-24T01:10:18;19.90;;;15.55;;
9773;SDS011;4926;42.670;23.316;2023-03-24T01:12:50;22.77;;;15.02;;
9773;SDS011;4926;42.670;23.316;2023-03-24T01:15:18;21.45;;;15.20;;
9773;SDS011;4926;42.670;23.316;2023-03-24T01:17:47;23.33;;;16.35;;
9773;SDS011;4926;42.670;23.316;2023-03-24T01:20:14;22.73;;;17.08;;
9773;SDS011;4926;42.670;23.316;2023-03-24T01:22:41;22.70;;;16.50;;
9773;SDS011;4926;42.670;23.316;2023-03-24T01:25:10;26.48;;;17.60;;
9773;SDS011;4926;42.670;23.316;2023-03-24T01:27:44;23.45;;;17.15;;
9773;SDS011;4926;42.670;23.316;2023-03-24T01:30:14;26.33;;;17.40;;
9773;SDS011;4926;42.670;23.316;2023-03-24T01:32:44;25.05;;;17.75;;
9773;SDS011;4926;42.670;23.316;2023-03-24T01:35:12;26.05;;;18.35;;
9773;SDS011;4926;42.670;23.316;2023-03-24T01:37:39;25.73;;;17.40;;
9773;SDS011;4926;42.670;23.316;2023-03-24T01:40:06;26.83;;;18.52;;
9773;SDS011;4926;42.670;23.316;2023-03-24T01:42:35;25.67;;;19.30;;
9773;SDS011;4926;42.670;23.316;2023-03-24T01:48:05;22.70;;;17.67;;
9773;SDS011;4926;42.670;23.316;2023-03-24T01:50:36;27.08;;;18.83;;
9773;SDS011;4926;42.670;23.316;2023-03-24T01:53:04;25.98;;;18.60;;
9773;SDS011;4926;42.670;23.316;2023-03-24T01:55:41;24.52;;;17.92;;
9773;SDS011;4926;42.670;23.316;2023-03-24T01:58:10;22.58;;;18.48;;
9773;SDS011;4926;42.670;23.316;2023-03-24T02:00:37;25.45;;;18.67;;
9773;SDS011;4926;42.670;23.316;2023-03-24T02:03:08;23.67;;;17.92;;
9773;SDS011;4926;42.670;23.316;2023-03-24T02:05:39;25.40;;;18.33;;
9773;SDS011;4926;42.670;23.316;2023-03-24T02:08:09;27.48;;;18.35;;
9773;SDS011;4926;42.670;23.316;2023-03-24T02:10:42;28.05;;;18.90;;
9773;SDS011;4926;42.670;23.316;2023-03-24T02:13:09;26.42;;;19.08;;
9773;SDS011;4926;42.670;23.316;2023-03-24T02:15:37;23.58;;;17.80;;
9773;SDS011;4926;42.670;23.316;2023-03-24T02:18:13;27.77;;;18.05;;
9773;SDS011;4926;42.670;23.316;2023-03-24T02:27:28;23.00;;;17.42;;
9773;SDS011;4926;42.670;23.316;2023-03-24T02:30:22;24.98;;;17.45;;
9773;SDS011;4926;42.670;23.316;2023-03-24T02:33:12;24.90;;;17.63;;
9773;SDS011;4926;42.670;23.316;2023-03-24T02:36:15;24.98;;;18.30;;
9773;SDS011;4926;42.670;23.316;2023-03-24T02:42:06;24.02;;;17.45;;
9773;SDS011;4926;42.670;23.316;2023-03-24T02:44:45;23.52;;;18.13;;
9773;SDS011;4926;42.670;23.316;2023-03-24T02:47:23;29.50;;;19.02;;
9773;SDS011;4926;42.670;23.316;2023-03-24T02:49:55;26.10;;;18.50;;
9773;SDS011;4926;42.670;23.316;2023-03-24T02:52:33;24.55;;;17.13;;
9773;SDS011;4926;42.670;23.316;2023-03-24T02:55:08;22.23;;;17.25;;
9773;SDS011;4926;42.670;23.316;2023-03-24T02:57:46;27.02;;;19.00;;
9773;SDS011;4926;42.670;23.316;2023-03-24T03:00:19;29.90;;;19.45;;
9773;SDS011;4926;42.670;23.316;2023-03-24T03:02:56;23.80;;;17.48;;
9773;SDS011;4926;42.670;23.316;2023-03-24T03:05:27;24.90;;;16.17;;
9773;SDS011;4926;42.670;23.316;2023-03-24T03:08:00;25.08;;;16.80;;
9773;SDS011;4926;42.670;23.316;2023-03-24T03:10:31;23.88;;;17.00;;
9773;SDS011;4926;42.670;23.316;2023-03-24T03:13:04;25.80;;;17.05;;
9773;SDS011;4926;42.670;23.316;2023-03-24T03:15:36;22.40;;;15.75;;
9773;SDS011;4926;42.670;23.316;2023-03-24T03:18:07;23.63;;;16.60;;
9773;SDS011;4926;42.670;23.316;2023-03-24T03:20:41;24.13;;;16.67;;
9773;SDS011;4926;42.670;23.316;2023-03-24T03:23:21;24.95;;;18.25;;
9773;SDS011;4926;42.670;23.316;2023-03-24T03:25:54;27.02;;;18.77;;
9773;SDS011;4926;42.670;23.316;2023-03-24T03:28:29;24.65;;;17.48;;
9773;SDS011;4926;42.670;23.316;2023-03-24T03:30:59;26.90;;;18.50;;
9773;SDS011;4926;42.670;23.316;2023-03-24T03:33:32;22.58;;;17.15;;
9773;SDS011;4926;42.670;23.316;2023-03-24T03:36:03;29.38;;;18.65;;
9773;SDS011;4926;42.670;23.316;2023-03-24T03:38:37;22.30;;;17.42;;
9773;SDS011;4926;42.670;23.316;2023-03-24T03:41:26;23.92;;;17.05;;
9773;SDS011;4926;42.670;23.316;2023-03-24T03:43:56;23.23;;;17.08;;
9773;SDS011;4926;42.670;23.316;2023-03-24T03:46:23;23.50;;;18.02;;
9773;SDS011;4926;42.670;23.316;2023-03-24T03:48:51;24.55;;;18.02;;
9773;SDS011;4926;42.670;23.316;2023-03-24T03:51:18;24.98;;;17.70;;
9773;SDS011;4926;42.670;23.316;2023-03-24T03:53:48;27.83;;;17.35;;
9773;SDS011;4926;42.670;23.316;2023-03-24T03:56:22;25.02;;;17.40;;
9773;SDS011;4926;42.670;23.316;2023-03-24T03:58:53;25.35;;;17.58;;
9773;SDS011;4926;42.670;23.316;2023-03-24T04:01:20;24.75;;;19.00;;
9773;SDS011;4926;42.670;23.316;2023-03-24T04:06:47;26.48;;;18.27;;
9773;SDS011;4926;42.670;23.316;2023-03-24T04:09:24;26.08;;;18.10;;
9773;SDS011;4926;42.670;23.316;2023-03-24T04:12:07;28.42;;;18.73;;
9773;SDS011;4926;42.670;23.316;2023-03-24T04:14:54;24.30;;;17.48;;
9773;SDS011;4926;42.670;23.316;2023-03-24T04:17:36;24.85;;;18.17;;
9773;SDS011;4926;42.670;23.316;2023-03-24T04:20:12;30.88;;;19.00;;
9773;SDS011;4926;42.670;23.316;2023-03-24T04:22:58;26.50;;;18.38;;
9773;SDS011;4926;42.670;23.316;2023-03-24T04:25:33;23.05;;;16.60;;
9773;SDS011;4926;42.670;23.316;2023-03-24T04:28:13;25.05;;;18.45;;
9773;SDS011;4926;42.670;23.316;2023-03-24T04:30:47;23.25;;;17.23;;
9773;SDS011;4926;42.670;23.316;2023-03-24T04:33:22;25.58;;;18.13;;
9773;SDS011;4926;42.670;23.316;2023-03-24T04:35:55;23.85;;;17.50;;
9773;SDS011;4926;42.670;23.316;2023-03-24T04:38:32;22.80;;;16.70;;
9773;SDS011;4926;42.670;23.316;2023-03-24T04:41:03;25.00;;;16.10;;
9773;SDS011;4926;42.670;23.316;2023-03-24T04:43:33;24.42;;;17.40;;
9773;SDS011;4926;42.670;23.316;2023-03-24T04:46:03;22.38;;;16.10;;
9773;SDS011;4926;42.670;23.316;2023-03-24T04:48:32;24.77;;;16.70;;
9773;SDS011;4926;42.670;23.316;2023-03-24T04:51:00;25.92;;;16.02;;
9773;SDS011;4926;42.670;23.316;2023-03-24T04:53:28;23.40;;;15.98;;
9773;SDS011;4926;42.670;23.316;2023-03-24T04:56:04;22.13;;;13.48;;
9773;SDS011;4926;42.670;23.316;2023-03-24T04:58:43;18.33;;;13.48;;
9773;SDS011;4926;42.670;23.316;2023-03-24T05:01:11;20.38;;;14.73;;
9773;SDS011;4926;42.670;23.316;2023-03-24T05:03:41;25.25;;;15.13;;
9773;SDS011;4926;42.670;23.316;2023-03-24T05:06:10;19.88;;;14.75;;
9773;SDS011;4926;42.670;23.316;2023-03-24T05:08:37;21.67;;;15.05;;
9773;SDS011;4926;42.670;23.316;2023-03-24T05:11:06;22.00;;;14.73;;
9773;SDS011;4926;42.670;23.316;2023-03-24T05:13:33;20.40;;;15.05;;
9773;SDS011;4926;42.670;23.316;2023-03-24T05:16:00;25.63;;;16.83;;
9773;SDS011;4926;42.670;23.316;2023-03-24T05:18:28;22.42;;;17.15;;
9773;SDS011;4926;42.670;23.316;2023-03-24T05:20:56;23.27;;;17.55;;
9773;SDS011;4926;42.670;23.316;2023-03-24T05:23:24;25.90;;;17.95;;
9773;SDS011;4926;42.670;23.316;2023-03-24T05:25:50;25.25;;;17.65;;
9773;SDS011;4926;42.670;23.316;2023-03-24T05:28:17;28.33;;;17.33;;
9773;SDS011;4926;42.670;23.316;2023-03-24T05:30:47;23.67;;;16.52;;
9773;SDS011;4926;42.670;23.316;2023-03-24T05:33:14;22.48;;;17.15;;
9773;SDS011;4926;42.670;23.316;2023-03-24T05:35:42;26.90;;;16.33;;
9773;SDS011;4926;42.670;23.316;2023-03-24T05:38:09;25.27;;;17.15;;
9773;SDS011;4926;42.670;23.316;2023-03-24T05:40:36;22.45;;;16.10;;
9773;SDS011;4926;42.670;23.316;2023-03-24T05:43:03;25.58;;;16.50;;
9773;SDS011;4926;42.670;23.316;2023-03-24T05:45:29;23.15;;;16.20;;
9773;SDS011;4926;42.670;23.316;2023-03-24T05:47:57;23.05;;;16.58;;
9773;SDS011;4926;42.670;23.316;2023-03-24T05:50:24;21.75;;;16.63;;
9773;SDS011;4926;42.670;23.316;2023-03-24T05:52:52;25.42;;;17.52;;
9773;SDS011;4926;42.670;23.316;2023-03-24T05:55:24;25.33;;;17.95;;
9773;SDS011;4926;42.670;23.316;2023-03-24T05:57:51;26.92;;;19.65;;
9773;SDS011;4926;42.670;23.316;2023-03-24T06:00:18;25.92;;;19.38;;
9773;SDS011;4926;42.670;23.316;2023-03-24T06:02:47;27.95;;;20.42;;
9773;SDS011;4926;42.670;23.316;2023-03-24T06:05:15;28.85;;;20.58;;
9773;SDS011;4926;42.670;23.316;2023-03-24T06:07:42;28.05;;;20.65;;
9773;SDS011;4926;42.670;23.316;2023-03-24T06:10:10;27.38;;;19.35;;
9773;SDS011;4926;42.670;23.316;2023-03-24T06:12:38;25.70;;;19.42;;
9773;SDS011;4926;42.670;23.316;2023-03-24T06:15:06;32.95;;;19.38;;
9773;SDS011;4926;42.670;23.316;2023-03-24T06:17:34;26.70;;;18.85;;
9773;SDS011;4926;42.670;23.316;2023-03-24T06:20:02;34.33;;;19.88;;
9773;SDS011;4926;42.670;23.316;2023-03-24T06:22:30;25.80;;;18.75;;
9773;SDS011;4926;42.670;23.316;2023-03-24T06:24:57;27.55;;;18.90;;
9773;SDS011;4926;42.670;23.316;2023-03-24T06:27:25;27.23;;;19.67;;
9773;SDS011;4926;42.670;23.316;2023-03-24T06:29:54;34.25;;;18.48;;
9773;SDS011;4926;42.670;23.316;2023-03-24T06:32:21;28.40;;;19.48;;
9773;SDS011;4926;42.670;23.316;2023-03-24T06:35:02;30.77;;;18.92;;
9773;SDS011;4926;42.670;23.316;2023-03-24T06:37:29;24.98;;;17.48;;
9773;SDS011;4926;42.670;23.316;2023-03-24T06:39:56;21.80;;;16.20;;
9773;SDS011;4926;42.670;23.316;2023-03-24T06:42:23;24.50;;;17.08;;
9773;SDS011;4926;42.670;23.316;2023-03-24T06:45:02;24.50;;;17.83;;
9773;SDS011;4926;42.670;23.316;2023-03-24T06:47:29;22.58;;;17.23;;
9773;SDS011;4926;42.670;23.316;2023-03-24T06:49:58;25.95;;;17.90;;
9773;SDS011;4926;42.670;23.316;2023-03-24T06:52:25;23.27;;;18.10;;
9773;SDS011;4926;42.670;23.316;2023-03-24T06:54:52;24.35;;;17.88;;
9773;SDS011;4926;42.670;23.316;2023-03-24T06:57:19;23.10;;;16.40;;
9773;SDS011;4926;42.670;23.316;2023-03-24T06:59:46;21.17;;;14.35;;
9773;SDS011;4926;42.670;23.316;2023-03-24T07:02:14;21.05;;;15.40;;
9773;SDS011;4926;42.670;23.316;2023-03-24T07:04:42;26.25;;;15.10;;
9773;SDS011;4926;42.670;23.316;2023-03-24T07:07:09;20.33;;;15.70;;
9773;SDS011;4926;42.670;23.316;2023-03-24T07:09:39;16.63;;;13.80;;
9773;SDS011;4926;42.670;23.316;2023-03-24T07:12:06;17.48;;;14.30;;
9773;SDS011;4926;42.670;23.316;2023-03-24T07:14:36;26.77;;;15.30;;
9773;SDS011;4926;42.670;23.316;2023-03-24T07:17:08;20.00;;;14.98;;
9773;SDS011;4926;42.670;23.316;2023-03-24T07:19:36;21.13;;;15.00;;
9773;SDS011;4926;42.670;23.316;2023-03-24T07:22:04;21.63;;;16.25;;
9773;SDS011;4926;42.670;23.316;2023-03-24T07:24:34;21.85;;;14.88;;
9773;SDS011;4926;42.670;23.316;2023-03-24T07:27:00;20.70;;;15.48;;
9773;SDS011;4926;42.670;23.316;2023-03-24T07:29:28;19.70;;;15.35;;
9773;SDS011;4926;42.670;23.316;2023-03-24T07:31:57;19.85;;;15.98;;
9773;SDS011;4926;42.670;23.316;2023-03-24T07:34:25;19.33;;;15.45;;
9773;SDS011;4926;42.670;23.316;2023-03-24T07:36:53;18.02;;;14.45;;
9773;SDS011;4926;42.670;23.316;2023-03-24T07:39:24;20.75;;;16.20;;
9773;SDS011;4926;42.670;23.316;2023-03-24T07:41:50;21.25;;;16.20;;
9773;SDS011;4926;42.670;23.316;2023-03-24T07:44:17;21.63;;;15.32;;
9773;SDS011;4926;42.670;23.316;2023-03-24T07:46:50;21.52;;;16.30;;
9773;SDS011;4926;42.670;23.316;2023-03-24T07:49:16;21.75;;;15.85;;
9773;SDS011;4926;42.670;23.316;2023-03-24T07:51:43;23.23;;;15.98;;
9773;SDS011;4926;42.670;23.316;2023-03-24T07:54:11;21.20;;;16.17;;
9773;SDS011;4926;42.670;23.316;2023-03-24T07:56:38;20.98;;;15.13;;
9773;SDS011;4926;42.670;23.316;2023-03-24T07:59:05;18.02;;;15.93;;
9773;SDS011;4926;42.670;23.316;2023-03-24T08:01:36;21.23;;;14.70;;
9773;SDS011;4926;42.670;23.316;2023-03-24T08:04:03;18.17;;;15.20;;
9773;SDS011;4926;42.670;23.316;2023-03-24T08:06:33;23.83;;;15.18;;
9773;SDS011;4926;42.670;23.316;2023-03-24T08:09:00;20.30;;;14.70;;
9773;SDS011;4926;42.670;23.316;2023-03-24T08:11:28;18.17;;;13.70;;
9773;SDS011;4926;42.670;23.316;2023-03-24T08:14:00;21.48;;;12.68;;
9773;SDS011;4926;42.670;23.316;2023-03-24T08:16:26;13.75;;;11.18;;
9773;SDS011;4926;42.670;23.316;2023-03-24T08:18:56;16.95;;;11.95;;
9773;SDS011;4926;42.670;23.316;2023-03-24T08:21:23;16.33;;;12.32;;
9773;SDS011;4926;42.670;23.316;2023-03-24T08:23:50;14.70;;;12.18;;
9773;SDS011;4926;42.670;23.316;2023-03-24T08:26:17;17.63;;;13.57;;
9773;SDS011;4926;42.670;23.316;2023-03-24T08:28:45;16.40;;;13.88;;
9773;SDS011;4926;42.670;23.316;2023-03-24T08:31:13;15.38;;;12.70;;
9773;SDS011;4926;42.670;23.316;2023-03-24T08:33:40;19.38;;;13.32;;
9773;SDS011;4926;42.670;23.316;2023-03-24T08:36:07;15.80;;;13.10;;
9773;SDS011;4926;42.670;23.316;2023-03-24T08:38:38;15.48;;;12.95;;
9773;SDS011;4926;42.670;23.316;2023-03-24T08:41:07;18.30;;;14.02;;
9773;SDS011;4926;42.670;23.316;2023-03-24T08:43:34;17.67;;;13.48;;
9773;SDS011;4926;42.670;23.316;2023-03-24T08:46:05;17.13;;;13.07;;
9773;SDS011;4926;42.670;23.316;2023-03-24T08:48:33;21.30;;;14.73;;
9773;SDS011;4926;42.670;23.316;2023-03-24T08:51:08;19.00;;;14.52;;
9773;SDS011;4926;42.670;23.316;2023-03-24T08:53:38;22.90;;;14.93;;
9773;SDS011;4926;42.670;23.316;2023-03-24T08:56:06;19.35;;;14.70;;
9773;SDS011;4926;42.670;23.316;2023-03-24T08:58:33;20.55;;;13.95;;
9773;SDS011;4926;42.670;23.316;2023-03-24T09:01:03;21.05;;;13.95;;
9773;SDS011;4926;42.670;23.316;2023-03-24T09:03:30;17.05;;;13.90;;
9773;SDS011;4926;42.670;23.316;2023-03-24T09:05:57;18.75;;;14.93;;
9773;SDS011;4926;42.670;23.316;2023-03-24T09:08:27;16.70;;;13.48;;
9773;SDS011;4926;42.670;23.316;2023-03-24T09:10:53;17.10;;;14.57;;
9773;SDS011;4926;42.670;23.316;2023-03-24T09:13:20;22.30;;;15.05;;
9773;SDS011;4926;42.670;23.316;2023-03-24T09:15:47;20.52;;;14.85;;
9773;SDS011;4926;42.670;23.316;2023-03-24T09:18:16;19.25;;;14.65;;
9773;SDS011;4926;42.670;23.316;2023-03-24T09:20:47;18.80;;;14.80;;
9773;SDS011;4926;42.670;23.316;2023-03-24T09:23:16;20.38;;;14.70;;
9773;SDS011;4926;42.670;23.316;2023-03-24T09:25:44;18.10;;;14.50;;
9773;SDS011;4926;42.670;23.316;2023-03-24T09:28:11;17.92;;;13.90;;
9773;SDS011;4926;42.670;23.316;2023-03-24T09:30:39;16.88;;;13.82;;
9773;SDS011;4926;42.670;23.316;2023-03-24T09:33:07;23.90;;;14.57;;
9773;SDS011;4926;42.670;23.316;2023-03-24T09:35:35;19.02;;;15.30;;
9773;SDS011;4926;42.670;23.316;2023-03-24T09:38:05;19.63;;;15.32;;
9773;SDS011;4926;42.670;23.316;2023-03-24T09:40:37;17.98;;;15.10;;
9773;SDS011;4926;42.670;23.316;2023-03-24T09:43:10;15.38;;;13.32;;
9773;SDS011;4926;42.670;23.316;2023-03-24T09:45:47;21.00;;;13.82;;
9773;SDS011;4926;42.670;23.316;2023-03-24T09:48:17;14.02;;;11.93;;
9773;SDS011;4926;42.670;23.316;2023-03-24T09:50:52;19.42;;;13.55;;
9773;SDS011;4926;42.670;23.316;2023-03-24T09:53:27;17.13;;;13.32;;
9773;SDS011;4926;42.670;23.316;2023-03-24T09:56:02;20.02;;;13.77;;
9773;SDS011;4926;42.670;23.316;2023-03-24T09:58:36;17.88;;;13.18;;
9773;SDS011;4926;42.670;23.316;2023-03-24T10:01:06;19.90;;;12.90;;
9773;SDS011;4926;42.670;23.316;2023-03-24T10:03:37;17.83;;;11.25;;
9773;SDS011;4926;42.670;23.316;2023-03-24T10:06:06;14.25;;;11.63;;
9773;SDS011;4926;42.670;23.316;2023-03-24T10:08:36;13.10;;;11.45;;
9773;SDS011;4926;42.670;23.316;2023-03-24T10:11:06;16.70;;;10.57;;
9773;SDS011;4926;42.670;23.316;2023-03-24T10:13:42;21.70;;;11.32;;
9773;SDS011;4926;42.670;23.316;2023-03-24T10:16:19;16.30;;;12.57;;
9773;SDS011;4926;42.670;23.316;2023-03-24T10:18:55;15.10;;;12.23;;
9773;SDS011;4926;42.670;23.316;2023-03-24T10:21:46;16.00;;;12.90;;
9773;SDS011;4926;42.670;23.316;2023-03-24T10:24:23;17.52;;;13.57;;
9773;SDS011;4926;42.670;23.316;2023-03-24T10:26:59;18.52;;;13.32;;
9773;SDS011;4926;42.670;23.316;2023-03-24T10:29:34;16.65;;;10.75;;
9773;SDS011;4926;42.670;23.316;2023-03-24T10:32:07;16.85;;;12.05;;
9773;SDS011;4926;42.670;23.316;2023-03-24T10:34:40;16.73;;;12.82;;
9773;SDS011;4926;42.670;23.316;2023-03-24T10:37:12;18.73;;;13.38;;
9773;SDS011;4926;42.670;23.316;2023-03-24T10:39:41;15.88;;;12.65;;
9773;SDS011;4926;42.670;23.316;2023-03-24T10:42:09;18.85;;;12.63;;
9773;SDS011;4926;42.670;23.316;2023-03-24T10:44:41;16.45;;;11.93;;
9773;SDS011;4926;42.670;23.316;2023-03-24T10:47:11;16.23;;;11.75;;
9773;SDS011;4926;42.670;23.316;2023-03-24T10:49:50;15.13;;;11.18;;
9773;SDS011;4926;42.670;23.316;2023-03-24T10:52:20;17.55;;;11.25;;
9773;SDS011;4926;42.670;23.316;2023-03-24T10:54:52;13.57;;;10.52;;
9773;SDS011;4926;42.670;23.316;2023-03-24T10:57:20;18.50;;;10.80;;
9773;SDS011;4926;42.670;23.316;2023-03-24T10:59:49;12.15;;;10.48;;
9773;SDS011;4926;42.670;23.316;2023-03-24T11:02:21;16.58;;;11.68;;
9773;SDS011;4926;42.670;23.316;2023-03-24T11:04:52;20.10;;;11.77;;
9773;SDS011;4926;42.670;23.316;2023-03-24T11:07:24;12.82;;;11.38;;
9773;SDS011;4926;42.670;23.316;2023-03-24T11:09:56;16.00;;;11.77;;
9773;SDS011;4926;42.670;23.316;2023-03-24T11:12:27;18.05;;;11.15;;
9773;SDS011;4926;42.670;23.316;2023-03-24T11:15:00;14.70;;;10.10;;
9773;SDS011;4926;42.670;23.316;2023-03-24T11:17:36;13.77;;;10.55;;
9773;SDS011;4926;42.670;23.316;2023-03-24T11:20:04;10.93;;;9.38;;
9773;SDS011;4926;42.670;23.316;2023-03-24T11:22:43;10.27;;;8.40;;
9773;SDS011;4926;42.670;23.316;2023-03-24T11:25:25;11.25;;;8.00;;
9773;SDS011;4926;42.670;23.316;2023-03-24T11:27:55;8.70;;;6.88;;
9773;SDS011;4926;42.670;23.316;2023-03-24T11:30:24;12.43;;;7.70;;
9773;SDS011;4926;42.670;23.316;2023-03-24T11:32:55;8.05;;;7.05;;
9773;SDS011;4926;42.670;23.316;2023-03-24T11:35:23;10.32;;;7.45;;
9773;SDS011;4926;42.670;23.316;2023-03-24T11:37:51;13.98;;;8.15;;
9773;SDS011;4926;42.670;23.316;2023-03-24T11:40:20;9.60;;;7.53;;
9773;SDS011;4926;42.670;23.316;2023-03-24T11:42:52;9.00;;;6.68;;
9773;SDS011;4926;42.670;23.316;2023-03-24T11:45:24;17.13;;;6.78;;
9773;SDS011;4926;42.670;23.316;2023-03-24T11:47:54;7.95;;;5.50;;
9773;SDS011;4926;42.670;23.316;2023-03-24T11:50:23;6.05;;;5.05;;
9773;SDS011;4926;42.670;23.316;2023-03-24T11:52:57;6.53;;;5.07;;
9773;SDS011;4926;42.670;23.316;2023-03-24T11:55:31;5.93;;;5.32;;
9773;SDS011;4926;42.670;23.316;2023-03-24T11:58:08;9.63;;;5.32;;
9773;SDS011;4926;42.670;23.316;2023-03-24T12:00:42;6.53;;;5.40;;
9773;SDS011;4926;42.670;23.316;2023-03-24T12:06:26;5.40;;;4.60;;
9773;SDS011;4926;42.670;23.316;2023-03-24T12:09:05;11.18;;;5.45;;
9773;SDS011;4926;42.670;23.316;2023-03-24T12:11:45;5.93;;;4.95;;
9773;SDS011;4926;42.670;23.316;2023-03-24T12:14:25;6.95;;;5.07;;
9773;SDS011;4926;42.670;23.316;2023-03-24T12:17:03;9.07;;;4.90;;
9773;SDS011;4926;42.670;23.316;2023-03-24T12:19:39;5.40;;;4.35;;
9773;SDS011;4926;42.670;23.316;2023-03-24T12:22:20;5.03;;;4.53;;
9773;SDS011;4926;42.670;23.316;2023-03-24T12:25:06;5.88;;;4.45;;
9773;SDS011;4926;42.670;23.316;2023-03-24T12:27:54;8.20;;;5.00;;
9773;SDS011;4926;42.670;23.316;2023-03-24T12:30:34;7.45;;;5.00;;
9773;SDS011;4926;42.670;23.316;2023-03-24T12:33:13;6.95;;;5.05;;
9773;SDS011;4926;42.670;23.316;2023-03-24T12:35:55;5.90;;;4.60;;
9773;SDS011;4926;42.670;23.316;2023-03-24T12:38:40;8.05;;;4.57;;
9773;SDS011;4926;42.670;23.316;2023-03-24T12:41:28;7.60;;;4.90;;
9773;SDS011;4926;42.670;23.316;2023-03-24T12:47:04;7.00;;;4.45;;
9773;SDS011;4926;42.670;23.316;2023-03-24T12:49:50;6.30;;;4.65;;
9773;SDS011;4926;42.670;23.316;2023-03-24T12:55:19;5.05;;;4.38;;
9773;SDS011;4926;42.670;23.316;2023-03-24T12:57:53;6.45;;;4.68;;
9773;SDS011;4926;42.670;23.316;2023-03-24T13:00:24;4.80;;;4.03;;
9773;SDS011;4926;42.670;23.316;2023-03-24T13:02:56;4.68;;;4.10;;
9773;SDS011;4926;42.670;23.316;2023-03-24T13:05:26;5.70;;;3.88;;
9773;SDS011;4926;42.670;23.316;2023-03-24T13:07:58;4.35;;;3.70;;
9773;SDS011;4926;42.670;23.316;2023-03-24T13:10:31;3.88;;;3.42;;
9773;SDS011;4926;42.670;23.316;2023-03-24T13:13:07;4.75;;;3.10;;
9773;SDS011;4926;42.670;23.316;2023-03-24T13:15:39;6.32;;;3.85;;
9773;SDS011;4926;42.670;23.316;2023-03-24T13:18:13;7.30;;;3.28;;
9773;SDS011;4926;42.670;23.316;2023-03-24T13:20:50;6.28;;;3.65;;
9773;SDS011;4926;42.670;23.316;2023-03-24T13:23:35;3.88;;;3.47;;
9773;SDS011;4926;42.670;23.316;2023-03-24T13:26:09;5.25;;;3.60;;
9773;SDS011;4926;42.670;23.316;2023-03-24T13:28:51;5.45;;;4.28;;
9773;SDS011;4926;42.670;23.316;2023-03-24T13:31:25;6.07;;;3.58;;
9773;SDS011;4926;42.670;23.316;2023-03-24T13:33:54;4.75;;;3.35;;
9773;SDS011;4926;42.670;23.316;2023-03-24T13:36:38;4.97;;;3.83;;
9773;SDS011;4926;42.670;23.316;2023-03-24T13:39:12;5.03;;;3.60;;
9773;SDS011;4926;42.670;23.316;2023-03-24T13:41:45;4.13;;;3.42;;
9773;SDS011;4926;42.670;23.316;2023-03-24T13:44:17;3.50;;;3.00;;
9773;SDS011;4926;42.670;23.316;2023-03-24T13:46:58;5.45;;;3.50;;
9773;SDS011;4926;42.670;23.316;2023-03-24T13:49:29;6.25;;;3.45;;
9773;SDS011;4926;42.670;23.316;2023-03-24T13:51:57;4.63;;;3.03;;
9773;SDS011;4926;42.670;23.316;2023-03-24T13:54:28;3.85;;;3.03;;
9773;SDS011;4926;42.670;23.316;2023-03-24T13:56:59;5.43;;;3.05;;
9773;SDS011;4926;42.670;23.316;2023-03-24T13:59:38;4.38;;;3.20;;
9773;SDS011;4926;42.670;23.316;2023-03-24T14:02:20;3.55;;;2.92;;
9773;SDS011;4926;42.670;23.316;2023-03-24T14:04:49;5.55;;;3.20;;
9773;SDS011;4926;42.670;23.316;2023-03-24T14:07:31;4.70;;;3.40;;
9773;SDS011;4926;42.670;23.316;2023-03-24T14:10:22;3.35;;;3.05;;
9773;SDS011;4926;42.670;23.316;2023-03-24T14:13:03;4.50;;;2.50;;
9773;SDS011;4926;42.670;23.316;2023-03-24T14:15:32;3.47;;;3.00;;
9773;SDS011;4926;42.670;23.316;2023-03-24T14:18:13;4.35;;;3.63;;
9773;SDS011;4926;42.670;23.316;2023-03-24T14:20:41;4.30;;;3.00;;
9773;SDS011;4926;42.670;23.316;2023-03-24T14:23:28;4.90;;;2.88;;
9773;SDS011;4926;42.670;23.316;2023-03-24T14:25:59;4.60;;;3.38;;
9773;SDS011;4926;42.670;23.316;2023-03-24T14:28:27;3.97;;;3.45;;
9773;SDS011;4926;42.670;23.316;2023-03-24T14:31:00;4.43;;;3.63;;
9773;SDS011;4926;42.670;23.316;2023-03-24T14:33:39;4.40;;;3.03;;
9773;SDS011;4926;42.670;23.316;2023-03-24T14:36:27;3.47;;;3.17;;
9773;SDS011;4926;42.670;23.316;2023-03-24T14:39:01;3.00;;;2.75;;
9773;SDS011;4926;42.670;23.316;2023-03-24T14:41:35;4.03;;;3.38;;
9773;SDS011;4926;42.670;23.316;2023-03-24T14:44:06;5.68;;;3.00;;
9773;SDS011;4926;42.670;23.316;2023-03-24T14:46:40;3.45;;;2.90;;
9773;SDS011;4926;42.670;23.316;2023-03-24T14:49:16;3.63;;;3.10;;
9773;SDS011;4926;42.670;23.316;2023-03-24T14:51:50;8.48;;;3.30;;
9773;SDS011;4926;42.670;23.316;2023-03-24T14:54:22;5.57;;;3.50;;
9773;SDS011;4926;42.670;23.316;2023-03-24T14:56:53;4.18;;;3.28;;
9773;SDS011;4926;42.670;23.316;2023-03-24T14:59:28;7.35;;;3.65;;
9773;SDS011;4926;42.670;23.316;2023-03-24T15:02:04;5.72;;;3.55;;
9773;SDS011;4926;42.670;23.316;2023-03-24T15:04:42;4.90;;;4.40;;
9773;SDS011;4926;42.670;23.316;2023-03-24T15:07:44;5.78;;;3.83;;
9773;SDS011;4926;42.670;23.316;2023-03-24T15:10:23;5.10;;;3.55;;
9773;SDS011;4926;42.670;23.316;2023-03-24T15:12:52;6.30;;;4.10;;
9773;SDS011;4926;42.670;23.316;2023-03-24T15:15:22;4.10;;;3.70;;
9773;SDS011;4926;42.670;23.316;2023-03-24T15:17:51;5.22;;;3.70;;
9773;SDS011;4926;42.670;23.316;2023-03-24T15:20:21;4.25;;;3.55;;
9773;SDS011;4926;42.670;23.316;2023-03-24T15:22:50;7.45;;;4.30;;
9773;SDS011;4926;42.670;23.316;2023-03-24T15:25:23;6.15;;;4.80;;
9773;SDS011;4926;42.670;23.316;2023-03-24T15:27:51;5.30;;;3.58;;
9773;SDS011;4926;42.670;23.316;2023-03-24T15:30:19;4.65;;;3.45;;
9773;SDS011;4926;42.670;23.316;2023-03-24T15:32:49;5.13;;;3.33;;